createdAt,value
2019-05-09T00:00:33.381Z,4.87
2019-05-09T00:03:03.538Z,4.50
2019-05-09T00:05:33.480Z,4.42
2019-05-09T00:08:03.527Z,4.50
2019-05-09T00:10:39.546Z,4.40
2019-05-09T00:13:03.340Z,4.30
2019-05-09T00:15:33.176Z,4.60
2019-05-09T00:18:00.786Z,4.53
2019-05-09T00:20:37.393Z,3.92
2019-05-09T00:23:05.496Z,3.98
2019-05-09T00:25:34.000Z,3.55
2019-05-09T00:28:04.263Z,3.77
2019-05-09T00:30:51.513Z,4.25
2019-05-09T00:33:24.887Z,4.20
2019-05-09T00:35:53.666Z,3.98
2019-05-09T00:38:23.963Z,4.00
2019-05-09T00:40:58.454Z,3.90
2019-05-09T00:43:23.765Z,3.65
2019-05-09T00:46:14.162Z,3.60
2019-05-09T00:49:13.961Z,3.58
2019-05-09T00:51:43.720Z,3.83
2019-05-09T00:54:13.507Z,3.77
2019-05-09T00:56:40.827Z,3.67
2019-05-09T00:59:08.356Z,3.83
2019-05-09T01:01:37.020Z,3.40
2019-05-09T01:04:04.598Z,3.45
2019-05-09T01:06:33.835Z,3.65
2019-05-09T01:09:03.626Z,3.47
2019-05-09T01:11:33.312Z,3.83
2019-05-09T01:14:03.664Z,3.33
2019-05-09T01:16:33.519Z,2.90
2019-05-09T01:19:03.979Z,3.35
2019-05-09T01:21:33.305Z,3.00
2019-05-09T01:24:03.366Z,3.15
2019-05-09T01:26:33.326Z,3.00
2019-05-09T01:29:01.535Z,2.90
2019-05-09T01:31:29.262Z,3.22
2019-05-09T01:34:06.015Z,2.60
2019-05-09T01:36:54.030Z,3.12
2019-05-09T01:39:24.204Z,2.85
2019-05-09T01:41:53.174Z,3.02
2019-05-09T01:44:20.919Z,2.87
2019-05-09T01:46:48.531Z,2.80
2019-05-09T01:49:16.313Z,3.00
2019-05-09T01:51:53.696Z,2.72
2019-05-09T01:54:43.566Z,2.30
2019-05-09T01:57:13.688Z,2.75
2019-05-09T01:59:44.371Z,2.75
2019-05-09T02:02:14.265Z,2.60
2019-05-09T02:04:43.948Z,2.80
2019-05-09T02:07:12.774Z,2.58
2019-05-09T02:09:40.148Z,2.40
2019-05-09T02:12:07.249Z,2.42
2019-05-09T02:14:43.526Z,2.83
2019-05-09T02:17:28.867Z,2.40
2019-05-09T02:19:55.928Z,2.70
2019-05-09T02:22:34.580Z,2.40
2019-05-09T02:25:04.257Z,2.42
2019-05-09T02:27:33.249Z,2.50
2019-05-09T02:30:00.655Z,2.17
2019-05-09T02:32:27.870Z,2.15
2019-05-09T02:34:56.828Z,2.12
2019-05-09T02:37:28.637Z,2.42
2019-05-09T02:39:59.192Z,2.20
2019-05-09T02:42:28.073Z,2.20
2019-05-09T02:44:59.260Z,2.27
2019-05-09T02:47:28.699Z,2.15
2019-05-09T02:49:58.732Z,2.10
2019-05-09T02:52:28.463Z,2.08
2019-05-09T02:54:58.245Z,1.98
2019-05-09T02:57:29.071Z,2.30
2019-05-09T03:00:22.188Z,2.15
2019-05-09T03:03:11.116Z,2.10
2019-05-09T03:05:39.697Z,2.02
2019-05-09T03:08:09.732Z,1.80
2019-05-09T03:10:38.110Z,2.45
2019-05-09T03:13:09.013Z,2.00
2019-05-09T03:15:39.428Z,2.17
2019-05-09T03:18:09.396Z,1.72
2019-05-09T03:20:48.964Z,2.22
2019-05-09T03:23:19.195Z,1.90
2019-05-09T03:25:48.411Z,1.70
2019-05-09T03:28:52.680Z,2.00
2019-05-09T03:31:21.246Z,1.92
2019-05-09T03:33:50.173Z,1.67
2019-05-09T03:36:18.276Z,1.90
2019-05-09T03:38:47.467Z,1.80
2019-05-09T03:41:14.489Z,1.70
2019-05-09T03:43:41.554Z,1.70
2019-05-09T03:46:18.133Z,1.87
2019-05-09T03:48:50.217Z,1.80
2019-05-09T03:51:19.612Z,1.45
2019-05-09T03:53:48.446Z,1.50
2019-05-09T03:56:20.565Z,1.60
2019-05-09T03:58:50.260Z,1.40
2019-05-09T04:01:17.756Z,1.55
2019-05-09T04:03:48.147Z,1.27
2019-05-09T04:06:18.418Z,1.40
2019-05-09T04:08:48.207Z,1.60
2019-05-09T04:11:18.546Z,1.52
2019-05-09T04:14:01.243Z,1.50
2019-05-09T04:16:29.818Z,1.62
2019-05-09T04:18:58.388Z,1.40
2019-05-09T04:21:27.800Z,1.45
2019-05-09T04:23:54.480Z,1.55
2019-05-09T04:26:32.432Z,1.60
2019-05-09T04:29:01.424Z,1.60
2019-05-09T04:31:29.766Z,1.22
2019-05-09T04:33:59.231Z,1.55
2019-05-09T04:36:40.269Z,1.62
2019-05-09T04:39:12.587Z,1.60
2019-05-09T04:41:40.931Z,1.47
2019-05-09T04:44:16.678Z,1.50
2019-05-09T04:46:40.993Z,1.60
2019-05-09T04:49:09.934Z,1.62
2019-05-09T04:51:39.242Z,1.40
2019-05-09T04:54:07.299Z,1.60
2019-05-09T04:56:39.519Z,1.40
2019-05-09T04:59:07.497Z,1.30
2019-05-09T05:01:49.243Z,1.40
2019-05-09T05:04:18.077Z,1.62
2019-05-09T05:06:47.720Z,1.45
2019-05-09T05:09:14.592Z,1.72
2019-05-09T05:11:42.054Z,1.50
2019-05-09T05:14:20.522Z,1.40
2019-05-09T05:16:54.098Z,1.72
2019-05-09T05:19:21.906Z,1.50
2019-05-09T05:21:49.590Z,1.45
2019-05-09T05:24:29.246Z,1.50
2019-05-09T05:26:58.021Z,1.37
2019-05-09T05:29:28.104Z,1.60
2019-05-09T05:31:58.555Z,1.50
2019-05-09T05:34:31.954Z,1.50
2019-05-09T05:36:59.922Z,1.70
2019-05-09T05:39:28.298Z,1.40
2019-05-09T05:41:57.688Z,1.72
2019-05-09T05:44:25.556Z,1.50
2019-05-09T05:47:12.380Z,1.65
2019-05-09T05:49:40.054Z,1.60
2019-05-09T05:52:08.033Z,1.80
2019-05-09T05:54:37.665Z,1.60
2019-05-09T05:57:04.388Z,1.55
2019-05-09T05:59:31.461Z,1.80
2019-05-09T06:01:59.451Z,1.92
2019-05-09T06:04:27.559Z,1.85
2019-05-09T06:06:54.834Z,1.40
2019-05-09T06:09:22.098Z,1.45
2019-05-09T06:11:49.472Z,1.42
2019-05-09T06:14:18.427Z,1.85
2019-05-09T06:16:48.581Z,1.40
2019-05-09T06:19:17.930Z,10.15
2019-05-09T06:21:48.572Z,5.87
2019-05-09T06:24:17.534Z,4.60
2019-05-09T06:26:44.889Z,3.75
2019-05-09T06:29:12.147Z,3.67
2019-05-09T06:31:39.420Z,2.08
2019-05-09T06:34:08.349Z,2.65
2019-05-09T06:36:38.902Z,2.80
2019-05-09T06:39:08.408Z,2.42
2019-05-09T06:41:37.785Z,2.37
2019-05-09T06:44:19.699Z,2.30
2019-05-09T06:47:10.075Z,2.52
2019-05-09T06:49:39.542Z,2.33
2019-05-09T06:52:08.715Z,2.52
2019-05-09T06:54:35.857Z,2.45
2019-05-09T06:57:03.009Z,2.92
2019-05-09T06:59:31.146Z,2.55
2019-05-09T07:02:04.366Z,2.62
2019-05-09T07:04:38.063Z,2.65
2019-05-09T07:07:09.655Z,3.12
2019-05-09T07:09:42.561Z,4.03
2019-05-09T07:12:09.787Z,2.80
2019-05-09T07:14:40.994Z,2.58
2019-05-09T07:17:08.177Z,2.77
2019-05-09T07:19:34.823Z,2.65
2019-05-09T07:22:28.216Z,2.90
2019-05-09T07:25:10.756Z,3.05
2019-05-09T07:27:38.851Z,3.10
2019-05-09T07:30:12.733Z,2.70
2019-05-09T07:32:49.562Z,3.22
2019-05-09T07:35:18.609Z,3.25
2019-05-09T07:37:45.624Z,3.00
2019-05-09T07:40:13.004Z,3.12
2019-05-09T07:42:40.408Z,2.67
2019-05-09T07:45:08.947Z,3.47
2019-05-09T07:47:38.556Z,3.40
2019-05-09T07:50:08.227Z,3.47
2019-05-09T07:52:34.847Z,3.30
2019-05-09T07:55:01.891Z,3.25
2019-05-09T07:57:28.974Z,4.15
2019-05-09T07:59:58.376Z,3.92
2019-05-09T08:02:25.307Z,4.05
2019-05-09T08:04:52.385Z,3.62
2019-05-09T08:07:19.434Z,4.10
2019-05-09T08:09:47.559Z,3.50
2019-05-09T08:12:17.751Z,3.70
2019-05-09T08:14:44.070Z,3.70
2019-05-09T08:17:12.387Z,3.70
2019-05-09T08:19:40.289Z,3.42
2019-05-09T08:22:08.144Z,3.65
2019-05-09T08:24:38.043Z,3.85
2019-05-09T08:27:05.509Z,3.02
2019-05-09T08:29:32.565Z,3.67
2019-05-09T08:32:00.097Z,3.75
2019-05-09T08:34:28.450Z,4.00
2019-05-09T08:36:58.068Z,3.10
2019-05-09T08:39:27.507Z,3.30
2019-05-09T08:41:54.466Z,3.77
2019-05-09T08:44:21.960Z,3.77
2019-05-09T08:46:48.990Z,3.70
2019-05-09T08:49:18.239Z,3.45
2019-05-09T08:52:12.685Z,3.92
2019-05-09T08:54:40.883Z,3.60
2019-05-09T08:57:07.924Z,3.22
2019-05-09T08:59:34.975Z,3.47
2019-05-09T09:02:15.320Z,3.45
2019-05-09T09:04:32.052Z,3.10
2019-05-09T09:06:59.385Z,4.00
2019-05-09T09:09:28.599Z,3.22
2019-05-09T09:11:58.301Z,3.55
2019-05-09T09:14:27.890Z,3.42
2019-05-09T09:16:57.509Z,3.37
2019-05-09T09:19:24.562Z,3.40
2019-05-09T09:21:51.957Z,3.87
2019-05-09T09:24:18.980Z,3.55
2019-05-09T09:26:48.069Z,3.50
2019-05-09T09:29:15.032Z,3.08
2019-05-09T09:31:42.406Z,3.00
2019-05-09T09:34:09.638Z,3.00
2019-05-09T09:36:38.992Z,3.17
2019-05-09T09:39:07.980Z,2.87
2019-05-09T09:41:38.315Z,2.70
2019-05-09T09:44:03.942Z,3.02
2019-05-09T09:46:31.330Z,3.22
2019-05-09T09:48:58.728Z,2.77
2019-05-09T09:51:27.601Z,2.77
2019-05-09T09:53:55.113Z,2.60
2019-05-09T09:56:22.666Z,3.00
2019-05-09T09:59:11.098Z,2.77
2019-05-09T10:01:41.031Z,2.87
2019-05-09T10:04:19.716Z,2.70
2019-05-09T10:06:41.207Z,2.62
2019-05-09T10:09:09.434Z,2.92
2019-05-09T10:11:38.042Z,2.77
2019-05-09T10:14:07.876Z,3.17
2019-05-09T10:16:43.167Z,2.90
2019-05-09T10:19:18.621Z,2.42
2019-05-09T10:21:49.161Z,2.62
2019-05-09T10:24:17.521Z,2.62
2019-05-09T10:27:03.373Z,2.27
2019-05-09T10:29:30.388Z,2.70
2019-05-09T10:31:58.129Z,3.00
2019-05-09T10:34:28.648Z,2.65
2019-05-09T10:36:55.482Z,2.67
2019-05-09T10:39:22.857Z,2.77
2019-05-09T10:41:51.212Z,2.80
2019-05-09T10:44:25.436Z,2.58
2019-05-09T10:47:19.429Z,2.25
2019-05-09T10:49:48.768Z,2.33
2019-05-09T10:52:18.058Z,2.00
2019-05-09T10:54:44.651Z,2.50
2019-05-09T10:57:11.976Z,2.35
2019-05-09T10:59:39.036Z,2.52
2019-05-09T11:02:09.541Z,2.17
2019-05-09T11:04:37.921Z,3.02
2019-05-09T11:07:07.879Z,2.08
2019-05-09T11:09:34.401Z,2.40
2019-05-09T11:12:02.537Z,2.20
2019-05-09T11:14:36.910Z,2.35
2019-05-09T11:17:07.967Z,2.15
2019-05-09T11:19:28.894Z,1.75
2019-05-09T11:21:58.604Z,2.08
2019-05-09T11:24:40.532Z,1.80
2019-05-09T11:26:54.475Z,1.70
2019-05-09T11:29:21.722Z,2.05
2019-05-09T11:31:48.808Z,1.95
2019-05-09T11:34:15.813Z,2.05
2019-05-09T11:36:42.806Z,2.10
2019-05-09T11:41:02.125Z,2.20
2019-05-09T11:41:38.788Z,2.27
2019-05-09T11:44:08.263Z,1.92
2019-05-09T11:46:37.989Z,1.80
2019-05-09T11:49:04.460Z,1.90
2019-05-09T11:51:31.587Z,2.30
2019-05-09T11:53:59.158Z,1.80
2019-05-09T11:56:26.706Z,2.27
2019-05-09T11:58:54.091Z,1.92
2019-05-09T12:01:22.251Z,2.00
2019-05-09T12:03:52.248Z,2.17
2019-05-09T12:06:20.109Z,2.00
2019-05-09T12:08:48.422Z,2.05
2019-05-09T12:11:18.393Z,1.90
2019-05-09T12:13:44.599Z,1.90
2019-05-09T12:16:11.598Z,1.90
2019-05-09T12:18:38.604Z,2.00
2019-05-09T12:21:05.584Z,1.85
2019-05-09T12:23:32.947Z,2.10
2019-05-09T12:25:59.988Z,1.77
2019-05-09T12:28:26.983Z,2.30
2019-05-09T12:30:53.976Z,1.92
2019-05-09T12:33:21.451Z,1.70
2019-05-09T12:35:48.436Z,1.52
2019-05-09T12:38:17.877Z,1.85
2019-05-09T12:40:44.637Z,2.20
2019-05-09T12:43:12.068Z,1.80
2019-05-09T12:45:39.738Z,1.50
2019-05-09T12:48:14.158Z,1.65
2019-05-09T12:50:38.552Z,2.02
2019-05-09T12:53:04.929Z,1.52
2019-05-09T12:55:31.995Z,1.77
2019-05-09T12:57:59.595Z,1.67
2019-05-09T13:00:28.449Z,1.60
2019-05-09T13:02:55.963Z,1.77
2019-05-09T13:05:22.996Z,1.60
2019-05-09T13:07:50.031Z,1.77
2019-05-09T13:10:19.412Z,2.00
2019-05-09T13:12:48.428Z,1.82
2019-05-09T13:15:18.364Z,1.30
2019-05-09T13:17:45.281Z,1.72
2019-05-09T13:20:13.969Z,1.52
2019-05-09T13:22:41.579Z,1.70
2019-05-09T13:25:09.666Z,1.35
2019-05-09T13:27:38.736Z,1.50
2019-05-09T13:30:08.322Z,1.92
2019-05-09T13:32:37.541Z,1.72
2019-05-09T13:35:04.846Z,1.30
2019-05-09T13:37:31.912Z,1.57
2019-05-09T13:39:59.317Z,1.72
2019-05-09T13:42:28.418Z,1.77
2019-05-09T13:44:55.664Z,1.60
2019-05-09T13:47:22.972Z,1.67
2019-05-09T13:49:50.076Z,1.50
2019-05-09T13:52:17.920Z,1.30
2019-05-09T13:54:48.244Z,1.70
2019-05-09T13:57:15.036Z,1.60
2019-05-09T13:59:42.361Z,1.30
2019-05-09T14:02:10.016Z,1.80
2019-05-09T14:04:39.667Z,1.60
2019-05-09T14:07:08.488Z,2.12
2019-05-09T14:09:37.840Z,1.77
2019-05-09T14:12:04.708Z,1.42
2019-05-09T14:14:33.142Z,1.55
2019-05-09T14:17:00.893Z,1.65
2019-05-09T14:19:39.875Z,1.77
2019-05-09T14:21:58.691Z,1.60
2019-05-09T14:24:27.888Z,1.07
2019-05-09T14:26:58.124Z,1.45
2019-05-09T14:29:25.144Z,1.40
2019-05-09T14:31:52.438Z,1.30
2019-05-09T14:34:19.979Z,1.45
2019-05-09T14:36:49.526Z,1.55
2019-05-09T14:39:18.052Z,1.32
2019-05-09T14:41:47.236Z,1.30
2019-05-09T14:44:14.430Z,1.27
2019-05-09T14:46:41.460Z,1.37
2019-05-09T14:49:08.538Z,1.20
2019-05-09T14:51:37.800Z,1.52
2019-05-09T14:54:05.237Z,1.60
2019-05-09T14:56:32.285Z,1.20
2019-05-09T14:58:59.302Z,1.05
2019-05-09T15:01:28.842Z,1.25
2019-05-09T15:03:58.526Z,1.42
2019-05-09T15:06:28.111Z,1.65
2019-05-09T15:08:55.057Z,1.50
2019-05-09T15:11:22.190Z,1.07
2019-05-09T15:13:49.522Z,1.17
2019-05-09T15:16:18.399Z,1.20
2019-05-09T15:18:48.524Z,1.40
2019-05-09T15:21:16.665Z,1.40
2019-05-09T15:23:44.173Z,1.35
2019-05-09T15:26:11.220Z,1.22
2019-05-09T15:28:39.250Z,1.45
2019-05-09T15:31:08.852Z,1.85
2019-05-09T15:33:37.522Z,1.60
2019-05-09T15:36:04.578Z,1.52
2019-05-09T15:38:31.608Z,1.47
2019-05-09T15:40:59.490Z,1.70
2019-05-09T15:43:26.836Z,1.60
2019-05-09T15:46:08.423Z,1.67
2019-05-09T15:48:37.960Z,1.82
2019-05-09T15:51:04.866Z,1.65
2019-05-09T15:53:32.251Z,1.65
2019-05-09T15:55:59.286Z,1.55
2019-05-09T15:58:28.606Z,1.62
2019-05-09T16:00:55.233Z,2.05
2019-05-09T16:03:22.767Z,1.90
2019-05-09T16:05:50.216Z,2.10
2019-05-09T16:08:18.536Z,1.82
2019-05-09T16:10:46.891Z,1.67
2019-05-09T16:13:14.046Z,1.65
2019-05-09T16:15:41.474Z,2.25
2019-05-09T16:18:08.892Z,1.60
2019-05-09T16:20:38.492Z,1.50
2019-05-09T16:23:08.409Z,1.35
2019-05-09T16:25:35.314Z,1.65
2019-05-09T16:28:03.282Z,1.90
2019-05-09T16:30:30.652Z,1.62
2019-05-09T16:32:58.581Z,1.32
2019-05-09T16:35:25.755Z,1.07
2019-05-09T16:38:02.795Z,1.67
2019-05-09T16:40:22.027Z,1.50
2019-05-09T16:42:50.272Z,1.40
2019-05-09T16:45:18.273Z,1.30
2019-05-09T16:47:45.502Z,1.60
2019-05-09T16:50:12.859Z,1.52
2019-05-09T16:52:43.463Z,1.80
2019-05-09T16:55:13.880Z,1.70
2019-05-09T16:57:42.319Z,1.77
2019-05-09T17:00:11.763Z,1.77
2019-05-09T17:02:39.046Z,1.72
2019-05-09T17:05:08.373Z,1.60
2019-05-09T17:07:38.225Z,1.72
2019-05-09T17:10:08.157Z,1.22
2019-05-09T17:12:34.722Z,1.70
2019-05-09T17:15:01.772Z,1.72
2019-05-09T17:17:29.101Z,1.57
2019-05-09T17:19:57.277Z,1.62
2019-05-09T17:22:42.968Z,1.92
2019-05-09T17:25:10.416Z,1.70
2019-05-09T17:27:38.704Z,1.67
2019-05-09T17:30:08.484Z,1.50
2019-05-09T17:32:37.990Z,1.50
2019-05-09T17:35:05.651Z,2.15
2019-05-09T17:37:33.412Z,1.87
2019-05-09T17:40:00.684Z,1.57
2019-05-09T17:42:28.251Z,1.62
2019-05-09T17:44:57.792Z,1.70
2019-05-09T17:47:25.003Z,2.40
2019-05-09T17:49:52.546Z,2.02
2019-05-09T17:52:20.314Z,1.87
2019-05-09T17:54:48.537Z,1.77
2019-05-09T17:57:18.604Z,1.42
2019-05-09T17:59:45.194Z,2.17
2019-05-09T18:02:12.471Z,2.05
2019-05-09T18:04:40.356Z,1.70
2019-05-09T18:07:08.937Z,1.67
2019-05-09T18:09:36.426Z,1.70
2019-05-09T18:12:03.651Z,1.45
2019-05-09T18:14:30.720Z,1.80
2019-05-09T18:16:58.862Z,1.70
2019-05-09T18:19:29.106Z,1.67
2019-05-09T18:21:57.845Z,2.08
2019-05-09T18:24:28.501Z,1.50
2019-05-09T18:26:55.350Z,1.80
2019-05-09T18:29:22.443Z,1.60
2019-05-09T18:32:00.484Z,1.87
2019-05-09T18:34:28.641Z,1.65
2019-05-09T18:36:58.592Z,1.47
2019-05-09T18:39:27.735Z,1.35
2019-05-09T18:41:55.053Z,1.50
2019-05-09T18:44:22.531Z,1.72
2019-05-09T18:46:49.604Z,1.30
2019-05-09T18:49:16.690Z,1.92
2019-05-09T18:51:43.987Z,1.50
2019-05-09T18:54:11.314Z,1.50
2019-05-09T18:56:38.310Z,1.30
2019-05-09T18:59:05.425Z,1.72
2019-05-09T19:01:32.718Z,2.00
2019-05-09T19:04:00.819Z,2.40
2019-05-09T19:06:28.018Z,1.87
2019-05-09T19:08:55.078Z,1.55
2019-05-09T19:11:22.503Z,1.82
2019-05-09T19:13:49.510Z,1.82
2019-05-09T19:16:27.957Z,2.33
2019-05-09T19:19:09.388Z,1.77
2019-05-09T19:21:56.051Z,1.70
2019-05-09T19:24:23.054Z,1.80
2019-05-09T19:26:50.725Z,1.82
2019-05-09T19:29:17.720Z,1.92
2019-05-09T19:31:44.718Z,1.70
2019-05-09T19:34:11.853Z,2.30
2019-05-09T19:36:39.278Z,1.70
2019-05-09T19:39:08.574Z,1.57
2019-05-09T19:41:36.891Z,1.75
2019-05-09T19:44:04.640Z,1.32
2019-05-09T19:46:31.916Z,1.55
2019-05-09T19:48:59.068Z,1.45
2019-05-09T19:51:26.162Z,1.62
2019-05-09T19:53:53.207Z,1.90
2019-05-09T19:56:22.016Z,1.62
2019-05-09T19:58:49.335Z,1.80
2019-05-09T20:01:16.491Z,1.67
2019-05-09T20:03:44.116Z,2.02
2019-05-09T20:06:11.423Z,1.98
2019-05-09T20:08:38.832Z,1.30
2019-05-09T20:11:35.544Z,2.20
2019-05-09T20:14:21.240Z,2.60
2019-05-09T20:16:50.434Z,1.40
2019-05-09T20:19:17.891Z,1.90
2019-05-09T20:21:46.024Z,1.65
2019-05-09T20:24:15.135Z,1.90
2019-05-09T20:26:43.067Z,1.65
2019-05-09T20:29:10.943Z,2.30
2019-05-09T20:31:39.124Z,1.92
2019-05-09T20:34:06.267Z,2.12
2019-05-09T20:36:33.597Z,1.72
2019-05-09T20:39:00.692Z,2.35
2019-05-09T20:41:28.128Z,1.60
2019-05-09T20:43:55.792Z,1.90
2019-05-09T20:46:23.124Z,1.55
2019-05-09T20:48:50.242Z,1.80
2019-05-09T20:51:17.587Z,1.67
2019-05-09T20:53:45.239Z,2.12
2019-05-09T20:56:12.597Z,1.47
2019-05-09T20:58:40.364Z,1.65
2019-05-09T21:01:07.752Z,1.50
2019-05-09T21:03:35.018Z,2.10
2019-05-09T21:06:02.444Z,1.50
2019-05-09T21:08:29.632Z,1.30
2019-05-09T21:10:57.062Z,1.95
2019-05-09T21:13:24.551Z,1.40
2019-05-09T21:15:51.735Z,1.40
2019-05-09T21:18:19.795Z,1.50
2019-05-09T21:20:47.875Z,1.40
2019-05-09T21:23:24.387Z,1.40
2019-05-09T21:25:44.840Z,1.45
2019-05-09T21:28:11.866Z,1.60
2019-05-09T21:30:39.181Z,1.47
2019-05-09T21:33:06.305Z,1.45
2019-05-09T21:35:33.764Z,1.50
2019-05-09T21:38:00.903Z,2.17
2019-05-09T21:40:28.253Z,1.77
2019-05-09T21:42:55.519Z,1.95
2019-05-09T21:45:22.572Z,1.52
2019-05-09T21:47:49.849Z,1.80
2019-05-09T21:50:16.904Z,1.50
2019-05-09T21:52:44.293Z,1.42
2019-05-09T21:55:11.319Z,1.85
2019-05-09T21:57:39.303Z,1.65
2019-05-09T22:00:09.599Z,1.40
2019-05-09T22:02:36.678Z,1.65
2019-05-09T22:05:04.906Z,1.40
2019-05-09T22:07:32.044Z,1.60
2019-05-09T22:10:00.072Z,1.70
2019-05-09T22:12:27.707Z,1.57
2019-05-09T22:14:54.785Z,1.45
2019-05-09T22:17:31.556Z,1.45
2019-05-09T22:19:59.577Z,1.65
2019-05-09T22:22:26.902Z,1.47
2019-05-09T22:24:54.086Z,1.20
2019-05-09T22:27:21.442Z,1.40
2019-05-09T22:29:48.534Z,1.40
2019-05-09T22:32:16.205Z,1.52
2019-05-09T22:34:43.337Z,1.32
2019-05-09T22:37:11.009Z,1.85
2019-05-09T22:39:38.387Z,1.12
2019-05-09T22:42:05.703Z,1.10
2019-05-09T22:44:32.865Z,1.30
2019-05-09T22:47:00.123Z,1.35
2019-05-09T22:49:27.250Z,1.30
2019-05-09T22:51:54.519Z,1.85
2019-05-09T22:54:22.003Z,1.70
2019-05-09T22:56:49.026Z,1.27
2019-05-09T22:59:16.421Z,1.40
2019-05-09T23:01:43.455Z,1.30
2019-05-09T23:04:10.575Z,1.55
2019-05-09T23:06:37.634Z,1.37
2019-05-09T23:09:05.622Z,1.37
2019-05-09T23:11:32.649Z,1.27
2019-05-09T23:14:00.715Z,1.10
2019-05-09T23:16:32.331Z,1.20
2019-05-09T23:19:02.379Z,1.35
2019-05-09T23:21:32.626Z,1.10
2019-05-09T23:24:07.850Z,1.20
2019-05-09T23:26:37.421Z,0.95
2019-05-09T23:29:08.768Z,1.10
2019-05-09T23:31:46.775Z,1.40
2019-05-09T23:34:15.120Z,1.12
2019-05-09T23:36:43.167Z,1.10
2019-05-09T23:40:35.312Z,1.40
2019-05-09T23:43:05.840Z,1.00
2019-05-09T23:45:33.855Z,1.20
2019-05-09T23:48:03.810Z,1.15
2019-05-09T23:50:32.370Z,1.40
2019-05-09T23:55:47.684Z,1.27
2019-05-09T23:58:35.620Z,1.10
